KAUG 280253Z AUTO 00000KT 10SM OVC060 09/03 A3024 RMK AO2 SLP242 T00940033 58001